RU-0287 weather

Korenovsk Air Base
Korenovsk, Krasnodar Krai, Russia

Public forecast

Using degrees Celsius for public forecast. Weather courtesy of forecast.io.

Closest aviation weather report (METAR) to Korenovsk Air Base

Closest report is Krasnodar Pashkovsky International Airport, 27.0 nm (50.0 km) SSW. Retrieved 2020/07/06 17:30 UTC (40 minutes ago):

URKK 061730Z 16002MPS 120V200 CAVOK 29/17 Q1002 R23L/CLRD70 NOSIG RMK QFE748

Closest aviation forecast (TAF) to Korenovsk Air Base

Closest forecast is Krasnodar Pashkovsky International Airport, 27.0 nm (50.0 km) SSW. Retrieved 2020/07/06 18:21 UTC (0 seconds ago):

TAF URKK 061659Z 0618/0718 32003G08MPS 9999 SCT040 TEMPO 0618/0703 VRB01MPS